Terminal Aerodrome Forecast
Issued by NWS Flagstaff, AZ

Home | Current Version | Previous Version | Text Only | Print | Product List | Glossary On
Versions: 1 2 3 4 5 6 7 8 9 10 11 12 13 14 15 16
000
FTUS45 KFGZ 202300
TAFFLG
TAF
KFLG 202320Z 2100/2124 VRB06KT P6SM SCT050 BKN090
      TEMPO 2100/2104 5SM TSRA BKN050CB
     FM211400 VRB06KT P6SM SCT060 SCT100 PROB30 2116/2122 4SM TSRA
      BKN050CB=

USA.gov is the U.S. government's official web portal to all federal, state and local government web resources and services.